createdAt,value
2022-09-12T00:00:00.101Z,16.93
2022-09-12T00:02:02.981Z,16.93
2022-09-12T00:04:06.029Z,16.91
2022-09-12T00:06:11.802Z,16.91
2022-09-12T00:08:15.556Z,16.89
2022-09-12T00:10:19.746Z,16.90
2022-09-12T00:12:22.568Z,16.86
2022-09-12T00:14:25.506Z,16.85
2022-09-12T00:16:30.180Z,16.87
2022-09-12T00:18:33.872Z,16.87
2022-09-12T00:20:36.686Z,16.84
2022-09-12T00:22:39.875Z,16.83
2022-09-12T00:24:42.633Z,16.82
2022-09-12T00:26:46.805Z,16.80
2022-09-12T00:28:50.668Z,16.79
2022-09-12T00:30:53.430Z,16.79
2022-09-12T00:32:56.187Z,16.73
2022-09-12T00:34:58.942Z,16.72
2022-09-12T00:37:01.701Z,16.68
2022-09-12T00:39:05.126Z,16.69
2022-09-12T00:41:08.360Z,16.71
2022-09-12T00:43:14.784Z,16.73
2022-09-12T00:45:25.032Z,16.68
2022-09-12T00:47:30.302Z,16.67
2022-09-12T00:49:37.222Z,16.65
2022-09-12T00:51:43.610Z,16.65
2022-09-12T00:53:49.965Z,16.60
2022-09-12T00:55:55.118Z,16.61
2022-09-12T00:58:03.367Z,16.66
2022-09-12T01:00:14.313Z,16.65
2022-09-12T01:02:18.192Z,16.62
2022-09-12T01:04:23.824Z,16.62
2022-09-12T01:06:29.636Z,16.57
2022-09-12T01:08:37.252Z,16.54
2022-09-12T01:10:42.601Z,16.55
2022-09-12T01:12:45.528Z,16.54
2022-09-12T01:14:48.293Z,16.55
2022-09-12T01:16:55.200Z,16.55
2022-09-12T01:19:09.979Z,16.57
2022-09-12T01:21:21.238Z,16.54
2022-09-12T01:23:57.891Z,16.48
2022-09-12T01:26:08.997Z,16.46
2022-09-12T01:28:32.165Z,16.39
2022-09-12T01:30:46.183Z,16.35
2022-09-12T01:33:02.663Z,16.38
2022-09-12T01:35:16.539Z,16.37
2022-09-12T01:37:29.008Z,16.40
2022-09-12T01:39:40.670Z,16.39
2022-09-12T01:41:54.457Z,16.39
2022-09-12T01:44:06.498Z,16.39
2022-09-12T01:46:17.599Z,16.39
2022-09-12T01:48:22.407Z,16.35
2022-09-12T01:50:29.138Z,16.34
2022-09-12T01:52:39.449Z,16.34
2022-09-12T01:54:47.939Z,16.33
2022-09-12T01:56:56.243Z,16.31
2022-09-12T01:59:05.441Z,16.28
2022-09-12T02:01:15.621Z,16.28
2022-09-12T02:03:21.904Z,16.26
2022-09-12T02:05:33.023Z,16.26
2022-09-12T02:07:40.583Z,16.23
2022-09-12T02:09:48.323Z,16.19
2022-09-12T02:11:54.224Z,16.15
2022-09-12T02:14:02.808Z,16.21
2022-09-12T02:16:10.649Z,16.23
2022-09-12T02:18:18.496Z,16.19
2022-09-12T02:20:44.442Z,16.21
2022-09-12T02:22:51.441Z,16.18
2022-09-12T02:24:58.566Z,16.20
2022-09-12T02:27:10.909Z,16.21
2022-09-12T02:29:13.804Z,16.16
2022-09-12T02:31:24.039Z,16.13
2022-09-12T02:33:31.483Z,16.12
2022-09-12T02:35:40.063Z,16.14
2022-09-12T02:37:57.003Z,16.10
2022-09-12T02:40:01.245Z,16.07
2022-09-12T02:42:04.982Z,16.04
2022-09-12T02:44:07.948Z,16.01
2022-09-12T02:46:17.108Z,16.02
2022-09-12T02:48:24.375Z,15.98
2022-09-12T02:50:28.914Z,15.97
2022-09-12T02:52:32.699Z,15.80
2022-09-12T02:54:35.705Z,15.86
2022-09-12T02:56:43.370Z,15.92
2022-09-12T02:58:46.405Z,15.92
2022-09-12T03:00:55.936Z,15.92
2022-09-12T03:03:19.519Z,15.93
2022-09-12T03:05:27.849Z,15.93
2022-09-12T03:07:51.678Z,15.91
2022-09-12T03:10:05.293Z,15.86
2022-09-12T03:12:22.318Z,15.85
2022-09-12T03:14:38.981Z,15.75
2022-09-12T03:16:48.883Z,15.72
2022-09-12T03:18:59.457Z,15.72
2022-09-12T03:21:07.241Z,15.75
2022-09-12T03:23:20.779Z,15.75
2022-09-12T03:25:29.538Z,15.75
2022-09-12T03:27:35.798Z,15.71
2022-09-12T03:29:41.280Z,15.73
2022-09-12T03:31:52.186Z,15.75
2022-09-12T03:33:54.924Z,15.70
2022-09-12T03:35:57.863Z,15.68
2022-09-12T03:38:00.624Z,15.65
2022-09-12T03:40:06.250Z,15.59
2022-09-12T03:42:09.037Z,15.57
2022-09-12T03:44:11.820Z,15.58
2022-09-12T03:46:15.353Z,15.54
2022-09-12T03:48:18.071Z,15.52
2022-09-12T03:50:20.851Z,15.51
2022-09-12T03:52:23.962Z,15.48
2022-09-12T03:54:26.802Z,15.63
2022-09-12T03:56:31.458Z,16.13
2022-09-12T03:58:35.679Z,16.49
2022-09-12T04:00:39.714Z,16.73
2022-09-12T04:02:42.479Z,16.87
2022-09-12T04:04:48.580Z,17.02
2022-09-12T04:06:51.356Z,17.15
2022-09-12T04:08:56.059Z,17.26
2022-09-12T04:11:03.751Z,17.32
2022-09-12T04:13:07.979Z,17.11
2022-09-12T04:15:11.467Z,16.79
2022-09-12T04:17:15.039Z,16.52
2022-09-12T04:19:18.266Z,16.26
2022-09-12T04:21:22.487Z,16.12
2022-09-12T04:23:26.773Z,15.97
2022-09-12T04:25:32.479Z,15.87
2022-09-12T04:27:35.333Z,15.81
2022-09-12T04:29:39.407Z,15.74
2022-09-12T04:31:42.985Z,15.66
2022-09-12T04:33:46.413Z,15.62
2022-09-12T04:35:50.224Z,15.56
2022-09-12T04:37:53.084Z,15.57
2022-09-12T04:39:57.765Z,15.54
2022-09-12T04:42:00.688Z,15.53
2022-09-12T04:44:05.568Z,15.47
2022-09-12T04:46:11.578Z,15.45
2022-09-12T04:48:14.959Z,15.39
2022-09-12T04:50:17.980Z,15.32
2022-09-12T04:52:20.785Z,15.29
2022-09-12T04:54:23.541Z,15.23
2022-09-12T04:56:27.923Z,15.23
2022-09-12T04:58:32.213Z,15.21
2022-09-12T05:00:35.072Z,15.23
2022-09-12T05:02:39.141Z,15.25
2022-09-12T05:04:41.975Z,15.25
2022-09-12T05:06:46.890Z,15.23
2022-09-12T05:08:49.773Z,15.20
2022-09-12T05:10:52.640Z,15.14
2022-09-12T05:12:55.406Z,15.18
2022-09-12T05:14:58.505Z,15.23
2022-09-12T05:17:02.146Z,15.20
2022-09-12T05:19:06.324Z,15.20
2022-09-12T05:21:11.643Z,15.19
2022-09-12T05:23:14.482Z,15.22
2022-09-12T05:25:17.474Z,15.25
2022-09-12T05:27:20.273Z,15.25
2022-09-12T05:29:25.113Z,15.24
2022-09-12T05:31:29.319Z,15.24
2022-09-12T05:33:33.843Z,15.22
2022-09-12T05:35:38.614Z,15.24
2022-09-12T05:37:41.411Z,15.27
2022-09-12T05:39:44.273Z,15.29
2022-09-12T05:41:47.252Z,15.28
2022-09-12T05:43:53.747Z,15.31
2022-09-12T05:46:01.877Z,15.32
2022-09-12T05:48:04.881Z,15.32
2022-09-12T05:50:10.887Z,15.36
2022-09-12T05:52:17.713Z,15.35
2022-09-12T05:54:21.186Z,15.38
2022-09-12T05:56:25.526Z,15.43
2022-09-12T05:58:28.628Z,15.43
2022-09-12T06:00:33.515Z,15.45
2022-09-12T06:02:36.606Z,15.51
2022-09-12T06:04:41.839Z,15.56
2022-09-12T06:06:46.177Z,15.56
2022-09-12T06:08:51.745Z,15.54
2022-09-12T06:11:02.266Z,15.63
2022-09-12T06:13:05.293Z,15.70
2022-09-12T06:15:08.961Z,15.78
2022-09-12T06:17:11.744Z,15.81
2022-09-12T06:19:16.187Z,15.91
2022-09-12T06:21:19.438Z,15.90
2022-09-12T06:23:22.370Z,15.95
2022-09-12T06:25:26.544Z,15.99
2022-09-12T06:27:29.323Z,15.98
2022-09-12T06:29:32.872Z,16.02
2022-09-12T06:31:37.182Z,16.11
2022-09-12T06:33:41.767Z,16.13
2022-09-12T06:35:44.526Z,16.23
2022-09-12T06:37:47.258Z,16.20
2022-09-12T06:39:50.090Z,16.19
2022-09-12T06:41:54.502Z,16.22
2022-09-12T06:44:10.825Z,16.27
2022-09-12T06:46:13.971Z,16.30
2022-09-12T06:48:16.844Z,16.37
2022-09-12T06:50:21.895Z,16.37
2022-09-12T06:52:26.039Z,16.34
2022-09-12T06:54:28.880Z,16.46
2022-09-12T06:56:32.004Z,16.52
2022-09-12T06:58:37.055Z,16.48
2022-09-12T07:00:40.023Z,16.49
2022-09-12T07:02:42.863Z,16.51
2022-09-12T07:04:45.835Z,16.57
2022-09-12T07:06:48.643Z,16.71
2022-09-12T07:08:52.239Z,16.66
2022-09-12T07:10:54.998Z,16.68
2022-09-12T07:12:58.969Z,16.79
2022-09-12T07:15:03.135Z,16.84
2022-09-12T07:17:06.021Z,16.89
2022-09-12T07:19:09.898Z,16.91
2022-09-12T07:21:14.422Z,16.92
2022-09-12T07:23:17.182Z,17.05
2022-09-12T07:25:19.992Z,17.05
2022-09-12T07:27:23.096Z,17.10
2022-09-12T07:29:36.390Z,17.11
2022-09-12T07:31:40.981Z,17.10
2022-09-12T07:33:44.805Z,17.10
2022-09-12T07:35:47.674Z,17.14
2022-09-12T07:37:50.468Z,17.23
2022-09-12T07:39:53.264Z,17.20
2022-09-12T07:41:56.018Z,17.24
2022-09-12T07:44:00.322Z,17.34
2022-09-12T07:46:03.115Z,17.33
2022-09-12T07:48:07.412Z,17.32
2022-09-12T07:50:10.747Z,17.41
2022-09-12T07:52:13.513Z,17.46
2022-09-12T07:54:16.660Z,17.41
2022-09-12T07:56:21.093Z,17.51
2022-09-12T07:58:24.001Z,17.60
2022-09-12T08:00:28.625Z,17.69
2022-09-12T08:02:31.440Z,17.74
2022-09-12T08:04:36.414Z,17.79
2022-09-12T08:06:39.175Z,17.79
2022-09-12T08:08:42.828Z,17.88
2022-09-12T08:10:45.703Z,17.91
2022-09-12T08:12:48.645Z,18.07
2022-09-12T08:14:51.460Z,18.10
2022-09-12T08:16:54.235Z,18.19
2022-09-12T08:18:57.023Z,18.23
2022-09-12T08:21:02.458Z,18.25
2022-09-12T08:23:05.157Z,18.28
2022-09-12T08:25:08.681Z,18.27
2022-09-12T08:27:11.615Z,18.35
2022-09-12T08:29:14.542Z,18.40
2022-09-12T08:31:19.374Z,18.42
2022-09-12T08:33:22.280Z,18.39
2022-09-12T08:35:25.064Z,18.40
2022-09-12T08:37:32.270Z,18.49
2022-09-12T08:39:35.171Z,18.57
2022-09-12T08:41:41.340Z,18.62
2022-09-12T08:43:58.140Z,18.60
2022-09-12T08:46:07.944Z,18.64
2022-09-12T08:48:12.864Z,18.77
2022-09-12T08:50:19.219Z,18.89
2022-09-12T08:52:28.563Z,18.99
2022-09-12T08:54:34.084Z,19.04
2022-09-12T08:56:38.600Z,19.11
2022-09-12T08:58:42.016Z,19.17
2022-09-12T09:00:52.050Z,19.32
2022-09-12T09:03:22.049Z,19.56
2022-09-12T09:05:39.373Z,19.62
2022-09-12T09:08:06.380Z,19.59
2022-09-12T09:10:23.540Z,19.67
2022-09-12T09:12:33.989Z,19.74
2022-09-12T09:15:02.245Z,19.79
2022-09-12T09:17:11.342Z,19.84
2022-09-12T09:19:19.584Z,19.86
2022-09-12T09:21:26.749Z,19.93
2022-09-12T09:23:35.874Z,19.98
2022-09-12T09:25:50.009Z,20.09
2022-09-12T09:27:59.614Z,20.08
2022-09-12T09:30:03.176Z,20.11
2022-09-12T09:32:15.250Z,20.18
2022-09-12T09:34:21.578Z,20.28
2022-09-12T09:36:34.720Z,20.33
2022-09-12T09:38:48.694Z,20.35
2022-09-12T09:41:05.209Z,20.43
2022-09-12T09:43:20.472Z,20.43
2022-09-12T09:45:25.419Z,20.40
2022-09-12T09:47:28.276Z,20.57
2022-09-12T09:49:34.543Z,20.43
2022-09-12T09:51:40.216Z,20.54
2022-09-12T09:53:49.293Z,20.61
2022-09-12T09:55:55.862Z,20.57
2022-09-12T09:57:58.643Z,20.64
2022-09-12T10:00:27.233Z,20.85
2022-09-12T10:02:30.106Z,20.93
2022-09-12T10:04:40.606Z,21.10
2022-09-12T10:06:45.293Z,21.26
2022-09-12T10:08:49.465Z,21.31
2022-09-12T10:11:02.807Z,21.30
2022-09-12T10:13:10.841Z,21.36
2022-09-12T10:15:21.928Z,21.36
2022-09-12T10:17:33.874Z,21.48
2022-09-12T10:19:39.860Z,21.48
2022-09-12T10:21:51.573Z,21.56
2022-09-12T10:24:00.995Z,21.67
2022-09-12T10:26:09.865Z,21.71
2022-09-12T10:28:27.071Z,21.95
2022-09-12T10:30:30.068Z,21.99
2022-09-12T10:32:37.587Z,22.05
2022-09-12T10:34:45.312Z,22.02
2022-09-12T10:36:48.568Z,22.02
2022-09-12T10:38:53.489Z,22.07
2022-09-12T10:40:59.808Z,22.11
2022-09-12T10:43:18.027Z,22.23
2022-09-12T10:45:24.624Z,22.26
2022-09-12T10:47:32.619Z,22.36
2022-09-12T10:49:38.077Z,22.40
2022-09-12T10:51:40.882Z,22.42
2022-09-12T10:53:46.831Z,22.46
2022-09-12T10:56:12.757Z,22.51
2022-09-12T10:58:55.954Z,22.52
2022-09-12T11:01:09.528Z,22.66
2022-09-12T11:03:17.761Z,22.85
2022-09-12T11:05:36.729Z,22.92
2022-09-12T11:07:47.022Z,22.94
2022-09-12T11:09:57.933Z,23.05
2022-09-12T11:12:09.501Z,23.15
2022-09-12T11:14:30.070Z,23.15
2022-09-12T11:16:43.108Z,23.27
2022-09-12T11:19:05.719Z,23.38
2022-09-12T11:21:23.299Z,23.38
2022-09-12T11:24:08.465Z,23.35
2022-09-12T11:26:25.884Z,23.26
2022-09-12T11:28:36.175Z,23.45
2022-09-12T11:30:52.584Z,23.47
2022-09-12T11:33:10.083Z,23.50
2022-09-12T11:35:20.599Z,23.58
2022-09-12T11:37:43.617Z,23.57
2022-09-12T11:39:54.746Z,23.63
2022-09-12T11:42:01.396Z,23.66
2022-09-12T11:44:11.179Z,23.69
2022-09-12T11:46:22.332Z,23.89
2022-09-12T11:48:39.266Z,23.92
2022-09-12T11:50:42.105Z,23.96
2022-09-12T11:52:45.050Z,24.01
2022-09-12T11:54:53.839Z,23.85
2022-09-12T11:57:05.021Z,23.86
2022-09-12T11:59:16.663Z,23.85
2022-09-12T12:01:26.019Z,23.88
2022-09-12T12:03:35.519Z,24.11
2022-09-12T12:05:44.112Z,23.92
2022-09-12T12:07:53.909Z,23.86
2022-09-12T12:09:56.897Z,24.02
2022-09-12T12:12:04.579Z,23.95
2022-09-12T12:14:13.950Z,23.93
2022-09-12T12:16:22.995Z,24.04
2022-09-12T12:18:28.113Z,24.01
2022-09-12T12:20:31.112Z,24.25
2022-09-12T12:22:33.938Z,24.20
2022-09-12T12:25:05.858Z,24.03
2022-09-12T12:27:24.841Z,24.08
2022-09-12T12:29:48.711Z,24.18
2022-09-12T12:32:26.562Z,24.28
2022-09-12T12:34:31.947Z,24.24
2022-09-12T12:36:40.337Z,24.31
2022-09-12T12:38:43.133Z,24.35
2022-09-12T12:40:46.005Z,24.29
2022-09-12T12:43:29.285Z,24.25
2022-09-12T12:46:11.857Z,24.35
2022-09-12T12:48:20.364Z,24.50
2022-09-12T12:50:26.393Z,24.56
2022-09-12T12:52:32.562Z,24.58
2022-09-12T12:54:56.115Z,24.50
2022-09-12T12:57:04.339Z,24.52
2022-09-12T12:59:18.611Z,24.58
2022-09-12T13:01:23.981Z,24.51
2022-09-12T13:03:31.534Z,24.60
2022-09-12T13:05:41.549Z,24.69
2022-09-12T13:07:45.376Z,24.85
2022-09-12T13:09:54.450Z,24.85
2022-09-12T13:12:02.363Z,24.69
2022-09-12T13:14:07.114Z,24.67
2022-09-12T13:16:11.322Z,24.81
2022-09-12T13:18:18.152Z,24.90
2022-09-12T13:20:29.994Z,24.86
2022-09-12T13:22:41.887Z,24.84
2022-09-12T13:24:47.447Z,24.74
2022-09-12T13:26:50.759Z,24.77
2022-09-12T13:29:12.706Z,24.84
2022-09-12T13:31:25.461Z,24.83
2022-09-12T13:33:35.953Z,24.80
2022-09-12T13:35:51.880Z,24.87
2022-09-12T13:38:06.305Z,24.85
2022-09-12T13:40:24.113Z,24.87
2022-09-12T13:42:41.450Z,24.85
2022-09-12T13:44:47.566Z,24.96
2022-09-12T13:46:51.797Z,25.11
2022-09-12T13:48:55.224Z,25.03
2022-09-12T13:51:02.975Z,25.07
2022-09-12T13:53:08.358Z,25.05
2022-09-12T13:55:24.989Z,25.02
2022-09-12T13:57:30.930Z,25.14
2022-09-12T13:59:39.907Z,25.36
2022-09-12T14:01:44.685Z,25.20
2022-09-12T14:04:10.505Z,24.93
2022-09-12T14:06:16.499Z,24.92
2022-09-12T14:08:19.684Z,24.94
2022-09-12T14:10:28.205Z,25.00
2022-09-12T14:12:34.756Z,25.07
2022-09-12T14:14:43.827Z,25.11
2022-09-12T14:16:47.080Z,25.13
2022-09-12T14:18:51.752Z,25.11
2022-09-12T14:20:57.141Z,25.13
2022-09-12T14:23:04.221Z,25.11
2022-09-12T14:25:10.835Z,25.09
2022-09-12T14:27:16.105Z,25.27
2022-09-12T14:29:19.246Z,25.05
2022-09-12T14:31:25.002Z,24.88
2022-09-12T14:33:27.921Z,24.79
2022-09-12T14:35:32.458Z,24.84
2022-09-12T14:37:35.498Z,24.84
2022-09-12T14:39:42.525Z,24.82
2022-09-12T14:41:46.152Z,24.82
2022-09-12T14:43:53.925Z,24.85
2022-09-12T14:46:00.319Z,24.81
2022-09-12T14:48:04.275Z,24.80
2022-09-12T14:50:16.941Z,24.84
2022-09-12T14:52:27.665Z,24.74
2022-09-12T14:54:44.340Z,24.62
2022-09-12T14:56:56.040Z,24.62
2022-09-12T14:59:27.555Z,24.52
2022-09-12T15:01:30.457Z,24.49
2022-09-12T15:03:35.535Z,24.52
2022-09-12T15:05:50.325Z,24.56
2022-09-12T15:07:55.217Z,24.49
2022-09-12T15:10:01.740Z,24.44
2022-09-12T15:12:04.603Z,24.60
2022-09-12T15:14:08.258Z,24.50
2022-09-12T15:16:12.869Z,24.50
2022-09-12T15:18:16.236Z,24.47
2022-09-12T15:20:19.140Z,24.45
2022-09-12T15:22:24.245Z,24.54
2022-09-12T15:24:27.007Z,24.49
2022-09-12T15:26:31.677Z,24.47
2022-09-12T15:28:35.465Z,24.44
2022-09-12T15:30:38.350Z,24.36
2022-09-12T15:32:43.352Z,24.39
2022-09-12T15:34:46.193Z,24.44
2022-09-12T15:36:49.402Z,24.49
2022-09-12T15:38:52.837Z,24.47
2022-09-12T15:40:57.243Z,24.46
2022-09-12T15:43:01.271Z,24.35
2022-09-12T15:45:17.368Z,24.42
2022-09-12T15:47:20.176Z,24.45
2022-09-12T15:49:23.108Z,24.40
2022-09-12T15:51:26.065Z,24.38
2022-09-12T15:53:29.349Z,24.39
2022-09-12T15:55:33.135Z,24.42
2022-09-12T15:57:35.998Z,24.41
2022-09-12T15:59:40.161Z,24.39
2022-09-12T16:01:42.990Z,24.35
2022-09-12T16:03:48.033Z,24.40
2022-09-12T16:05:51.821Z,24.35
2022-09-12T16:07:56.491Z,24.34
2022-09-12T16:09:59.656Z,24.33
2022-09-12T16:12:03.337Z,24.28
2022-09-12T16:14:06.451Z,24.27
2022-09-12T16:16:11.521Z,24.22
2022-09-12T16:18:14.363Z,24.23
2022-09-12T16:20:17.285Z,24.22
2022-09-12T16:22:20.056Z,24.21
2022-09-12T16:24:22.992Z,24.22
2022-09-12T16:26:25.778Z,24.24
2022-09-12T16:28:29.442Z,24.23
2022-09-12T16:30:32.364Z,24.20
2022-09-12T16:32:37.030Z,24.16
2022-09-12T16:34:39.794Z,24.12
2022-09-12T16:36:45.169Z,24.08
2022-09-12T16:38:49.728Z,24.05
2022-09-12T16:40:52.543Z,24.02
2022-09-12T16:42:55.468Z,24.00
2022-09-12T16:44:58.262Z,23.98
2022-09-12T16:47:01.049Z,23.96
2022-09-12T16:49:05.894Z,23.91
2022-09-12T16:51:08.731Z,23.86
2022-09-12T16:53:14.468Z,23.81
2022-09-12T16:55:17.275Z,23.77
2022-09-12T16:57:20.070Z,23.75
2022-09-12T16:59:22.921Z,23.71
2022-09-12T17:01:27.016Z,23.67
2022-09-12T17:03:30.217Z,23.63
2022-09-12T17:05:34.496Z,23.60
2022-09-12T17:07:37.303Z,23.56
2022-09-12T17:09:40.031Z,23.53
2022-09-12T17:11:43.136Z,23.51
2022-09-12T17:14:04.009Z,23.49
2022-09-12T17:16:10.346Z,23.44
2022-09-12T17:18:13.286Z,23.40
2022-09-12T17:20:16.077Z,23.35
2022-09-12T17:22:22.738Z,23.31
2022-09-12T17:24:26.680Z,23.23
2022-09-12T17:26:29.444Z,23.13
2022-09-12T17:28:32.584Z,23.05
2022-09-12T17:30:36.167Z,22.95
2022-09-12T17:32:39.206Z,22.85
2022-09-12T17:34:42.067Z,22.77
2022-09-12T17:36:45.342Z,22.71
2022-09-12T17:38:49.534Z,22.66
2022-09-12T17:40:59.495Z,22.60
2022-09-12T17:43:02.984Z,22.55
2022-09-12T17:45:06.946Z,22.49
2022-09-12T17:47:12.730Z,22.43
2022-09-12T17:49:17.093Z,22.35
2022-09-12T17:51:19.936Z,22.18
2022-09-12T17:53:22.789Z,22.06
2022-09-12T17:55:27.429Z,22.09
2022-09-12T17:57:30.358Z,22.09
2022-09-12T17:59:33.195Z,22.08
2022-09-12T18:01:54.272Z,22.06
2022-09-12T18:03:59.171Z,22.03
2022-09-12T18:06:02.218Z,22.02
2022-09-12T18:08:05.106Z,22.05
2022-09-12T18:10:08.712Z,22.04
2022-09-12T18:12:13.105Z,21.99
2022-09-12T18:14:17.230Z,21.95
2022-09-12T18:16:20.200Z,21.90
2022-09-12T18:18:22.993Z,21.89
2022-09-12T18:20:25.810Z,21.86
2022-09-12T18:22:28.609Z,21.81
2022-09-12T18:24:31.352Z,21.76
2022-09-12T18:26:34.898Z,21.70
2022-09-12T18:28:42.309Z,21.64
2022-09-12T18:30:45.453Z,21.57
2022-09-12T18:32:48.495Z,21.52
2022-09-12T18:34:51.450Z,21.48
2022-09-12T18:36:54.832Z,21.42
2022-09-12T18:38:59.049Z,21.35
2022-09-12T18:41:05.921Z,21.27
2022-09-12T18:43:08.979Z,21.20
2022-09-12T18:45:13.120Z,21.17
2022-09-12T18:47:15.946Z,21.10
2022-09-12T18:49:18.735Z,21.09
2022-09-12T18:51:25.310Z,21.06
2022-09-12T18:53:28.157Z,21.02
2022-09-12T18:55:33.114Z,21.02
2022-09-12T18:57:36.033Z,20.96
2022-09-12T18:59:38.742Z,20.92
2022-09-12T19:01:43.783Z,20.91
2022-09-12T19:03:47.383Z,20.86
2022-09-12T19:05:50.368Z,20.84
2022-09-12T19:07:53.196Z,20.84
2022-09-12T19:09:58.837Z,20.83
2022-09-12T19:12:01.600Z,20.73
2022-09-12T19:14:05.331Z,20.69
2022-09-12T19:16:10.208Z,20.67
2022-09-12T19:18:14.613Z,20.64
2022-09-12T19:20:17.418Z,20.64
2022-09-12T19:22:20.263Z,20.62
2022-09-12T19:24:23.578Z,20.60
2022-09-12T19:26:27.236Z,20.56
2022-09-12T19:28:30.793Z,20.52
2022-09-12T19:30:33.664Z,20.50
2022-09-12T19:32:37.629Z,20.49
2022-09-12T19:34:41.782Z,20.49
2022-09-12T19:36:46.260Z,20.48
2022-09-12T19:38:49.767Z,20.48
2022-09-12T19:40:59.597Z,20.48
2022-09-12T19:43:05.174Z,20.42
2022-09-12T19:45:08.695Z,20.36
2022-09-12T19:47:14.027Z,20.31
2022-09-12T19:49:16.814Z,20.29
2022-09-12T19:51:23.781Z,20.23
2022-09-12T19:53:27.187Z,20.22
2022-09-12T19:55:30.088Z,20.25
2022-09-12T19:57:32.942Z,20.21
2022-09-12T19:59:35.712Z,20.18
2022-09-12T20:01:38.681Z,20.15
2022-09-12T20:03:42.336Z,20.10
2022-09-12T20:05:45.139Z,20.03
2022-09-12T20:07:50.281Z,20.03
2022-09-12T20:09:53.298Z,20.01
2022-09-12T20:11:56.074Z,19.99
2022-09-12T20:13:58.879Z,19.99
2022-09-12T20:16:07.306Z,19.98
2022-09-12T20:18:10.154Z,19.96
2022-09-12T20:20:13.109Z,19.95
2022-09-12T20:22:15.858Z,19.93
2022-09-12T20:24:19.990Z,19.91
2022-09-12T20:26:24.833Z,19.91
2022-09-12T20:28:27.566Z,19.88
2022-09-12T20:30:30.766Z,19.84
2022-09-12T20:32:33.512Z,19.80
2022-09-12T20:34:36.349Z,19.73
2022-09-12T20:36:39.162Z,19.69
2022-09-12T20:38:42.642Z,19.66
2022-09-12T20:40:50.284Z,19.62
2022-09-12T20:42:52.980Z,19.57
2022-09-12T20:44:55.971Z,19.52
2022-09-12T20:46:59.521Z,19.51
2022-09-12T20:49:02.440Z,19.43
2022-09-12T20:51:05.616Z,19.42
2022-09-12T20:53:08.594Z,19.43
2022-09-12T20:55:11.716Z,19.40
2022-09-12T20:57:15.864Z,19.40
2022-09-12T20:59:18.826Z,19.38
2022-09-12T21:01:21.701Z,19.33
2022-09-12T21:03:25.331Z,19.30
2022-09-12T21:05:30.801Z,19.27
2022-09-12T21:07:33.586Z,19.21
2022-09-12T21:09:36.580Z,19.18
2022-09-12T21:11:39.370Z,19.13
2022-09-12T21:13:43.494Z,19.04
2022-09-12T21:15:46.311Z,18.99
2022-09-12T21:17:49.071Z,18.99
2022-09-12T21:19:51.800Z,18.98
2022-09-12T21:21:54.566Z,18.94
2022-09-12T21:23:59.420Z,18.89
2022-09-12T21:26:02.596Z,18.90
2022-09-12T21:28:05.388Z,18.91
2022-09-12T21:30:10.335Z,18.89
2022-09-12T21:32:14.411Z,18.87
2022-09-12T21:34:17.338Z,18.87
2022-09-12T21:36:20.160Z,18.90
2022-09-12T21:38:23.107Z,18.91
2022-09-12T21:40:25.836Z,18.92
2022-09-12T21:42:28.574Z,18.91
2022-09-12T21:44:31.400Z,18.89
2022-09-12T21:46:35.747Z,18.89
2022-09-12T21:48:38.642Z,18.81
2022-09-12T21:50:41.371Z,18.79
2022-09-12T21:52:44.362Z,18.73
2022-09-12T21:54:47.121Z,18.67
2022-09-12T21:56:49.844Z,18.66
2022-09-12T21:58:52.775Z,18.65
2022-09-12T22:00:55.620Z,18.60
2022-09-12T22:03:00.057Z,18.59
2022-09-12T22:05:02.950Z,18.52
2022-09-12T22:07:06.290Z,18.55
2022-09-12T22:09:09.112Z,18.55
2022-09-12T22:11:12.782Z,18.56
2022-09-12T22:13:15.538Z,18.54
2022-09-12T22:15:39.447Z,18.52
2022-09-12T22:17:41.847Z,18.46
2022-09-12T22:19:45.971Z,18.52
2022-09-12T22:22:02.688Z,18.53
2022-09-12T22:24:19.392Z,18.54
2022-09-12T22:26:22.230Z,18.54
2022-09-12T22:28:25.331Z,18.46
2022-09-12T22:30:28.576Z,18.37
2022-09-12T22:32:31.399Z,18.31
2022-09-12T22:34:34.291Z,18.34
2022-09-12T22:36:39.230Z,18.34
2022-09-12T22:38:42.102Z,18.28
2022-09-12T22:40:44.844Z,18.20
2022-09-12T22:42:47.609Z,18.25
2022-09-12T22:44:50.380Z,18.32
2022-09-12T22:46:53.386Z,18.37
2022-09-12T22:48:56.577Z,18.34
2022-09-12T22:50:59.416Z,18.34
2022-09-12T22:53:03.522Z,18.35
2022-09-12T22:55:06.654Z,18.35
2022-09-12T22:57:09.595Z,18.35
2022-09-12T22:59:12.396Z,18.32
2022-09-12T23:01:15.781Z,18.32
2022-09-12T23:03:19.199Z,18.30
2022-09-12T23:05:22.401Z,18.29
2022-09-12T23:07:25.682Z,18.25
2022-09-12T23:09:33.334Z,18.25
2022-09-12T23:11:38.212Z,18.24
2022-09-12T23:13:43.863Z,18.25
2022-09-12T23:15:46.635Z,18.23
2022-09-12T23:17:49.439Z,18.20
2022-09-12T23:19:52.512Z,18.14
2022-09-12T23:21:55.464Z,18.11
2022-09-12T23:23:58.441Z,18.08
2022-09-12T23:26:07.825Z,18.09
2022-09-12T23:28:13.265Z,18.02
2022-09-12T23:30:21.417Z,17.99
2022-09-12T23:32:24.623Z,17.98
2022-09-12T23:34:27.381Z,17.95
2022-09-12T23:36:30.513Z,17.90
2022-09-12T23:38:34.217Z,17.89
2022-09-12T23:40:36.977Z,17.84
2022-09-12T23:42:41.120Z,17.85
2022-09-12T23:44:44.137Z,17.82
2022-09-12T23:46:46.900Z,17.80
2022-09-12T23:48:50.251Z,17.71
2022-09-12T23:50:53.294Z,17.69
2022-09-12T23:52:56.044Z,17.73
2022-09-12T23:54:58.816Z,17.72
2022-09-12T23:57:01.567Z,17.73
2022-09-12T23:59:05.864Z,17.73
